CPA852 VHHH-KSEA
Flight info
| Callsign | CPA852 |
|---|---|
| Flight time | N/A |
| Altitude | 37000 |
| Route | RAMEN DCT BIGEX A1 HKC Y45 OOITA Y40 MYE V40 KTE Y33 LABEL Y121 SWING Y88 DAIGO Y889 OATIS R580 ONEMU/N0480F390 R580 OMOTO DCT OPHET DCT PLADO DCT EXAMY DCT CRYPT/N0491F410 DCT CDB DCT 55N160W 54N150W 53N140W DCT MANJO DCT TOU MARNR8 |
| Aircraft | A359/H-SDE2E3GHIJ3J4J5LM1ORWXY/LB1D1 |
Departure
| Time | 2026-05-07 06:08 |
|---|---|
| Airport | Hong Kong International Airport (VHHH) |
Arrival
| Time | N/A |
|---|---|
| Airport | Seattle–Tacoma International Airport (KSEA) |
| Time | Latitude | Longitude | Altitude | Speed | Heading |
|---|---|---|---|---|---|
| 2026-05-07 04:27 | 22.31411 | 113.92861 | 43 ft | 0 kts | 161° |
| 2026-05-07 05:57 | 22.31429 | 113.92854 | 41 ft | 4 kts | 161° |
| 2026-05-07 05:57 | 22.31455 | 113.92844 | 39 ft | 4 kts | 161° |
| 2026-05-07 05:58 | 22.31475 | 113.92837 | 38 ft | 4 kts | 155° |
| 2026-05-07 05:58 | 22.31491 | 113.92826 | 41 ft | 4 kts | 112° |
| 2026-05-07 05:58 | 22.31494 | 113.92806 | 40 ft | 4 kts | 75° |
| 2026-05-07 05:58 | 22.31488 | 113.92787 | 38 ft | 4 kts | 90° |
| 2026-05-07 05:59 | 22.31493 | 113.92762 | 39 ft | 3 kts | 115° |
| 2026-05-07 05:59 | 22.31503 | 113.92740 | 40 ft | 4 kts | 115° |
| 2026-05-07 05:59 | 22.31509 | 113.92727 | 40 ft | 1 kts | 115° |
| 2026-05-07 06:01 | 22.31508 | 113.92727 | 43 ft | 1 kts | 115° |
| 2026-05-07 06:01 | 22.31490 | 113.92773 | 43 ft | 10 kts | 102° |
| 2026-05-07 06:01 | 22.31510 | 113.92856 | 43 ft | 18 kts | 70° |
| 2026-05-07 06:02 | 22.31588 | 113.92923 | 43 ft | 15 kts | 348° |
| 2026-05-07 06:02 | 22.31685 | 113.92886 | 43 ft | 16 kts | 341° |
| 2026-05-07 06:02 | 22.31781 | 113.92835 | 43 ft | 14 kts | 301° |
| 2026-05-07 06:02 | 22.31764 | 113.92731 | 43 ft | 17 kts | 249° |
| 2026-05-07 06:03 | 22.31716 | 113.92585 | 43 ft | 23 kts | 250° |
| 2026-05-07 06:03 | 22.31663 | 113.92424 | 43 ft | 23 kts | 251° |
| 2026-05-07 06:03 | 22.31609 | 113.92254 | 43 ft | 26 kts | 251° |
| 2026-05-07 06:03 | 22.31543 | 113.92048 | 43 ft | 30 kts | 251° |
| 2026-05-07 06:04 | 22.31477 | 113.91838 | 43 ft | 29 kts | 251° |
| 2026-05-07 06:04 | 22.31411 | 113.91634 | 43 ft | 29 kts | 250° |
| 2026-05-07 06:04 | 22.31343 | 113.91429 | 43 ft | 29 kts | 251° |
| 2026-05-07 06:04 | 22.31277 | 113.91226 | 43 ft | 29 kts | 251° |
| 2026-05-07 06:05 | 22.31212 | 113.91023 | 43 ft | 29 kts | 251° |
| 2026-05-07 06:05 | 22.31147 | 113.90821 | 43 ft | 29 kts | 251° |
| 2026-05-07 06:05 | 22.31082 | 113.90619 | 43 ft | 28 kts | 251° |
| 2026-05-07 06:05 | 22.31017 | 113.90418 | 43 ft | 28 kts | 251° |
| 2026-05-07 06:06 | 22.30951 | 113.90218 | 43 ft | 28 kts | 251° |
| 2026-05-07 06:06 | 22.30887 | 113.90018 | 43 ft | 28 kts | 251° |
| 2026-05-07 06:06 | 22.30869 | 113.89846 | 41 ft | 19 kts | 310° |
| 2026-05-07 06:06 | 22.30985 | 113.89793 | 43 ft | 19 kts | 341° |
| 2026-05-07 06:07 | 22.31073 | 113.89770 | 42 ft | 5 kts | 22° |
| 2026-05-07 06:07 | 22.31102 | 113.89822 | 42 ft | 16 kts | 71° |
| 2026-05-07 06:07 | 22.31194 | 113.90106 | 42 ft | 68 kts | 71° |
| 2026-05-07 06:07 | 22.31410 | 113.90777 | 44 ft | 119 kts | 71° |
| 2026-05-07 06:08 | 22.31733 | 113.91782 | 44 ft | 163 kts | 71° |
| 2026-05-07 06:08 | 22.32128 | 113.93026 | 367 ft | 177 kts | 68° |
| 2026-05-07 06:08 | 22.32536 | 113.94260 | 1006 ft | 176 kts | 72° |
| 2026-05-07 06:08 | 22.32957 | 113.95557 | 1243 ft | 195 kts | 73° |
| 2026-05-07 06:09 | 22.33379 | 113.97050 | 1523 ft | 211 kts | 78° |
| 2026-05-07 06:09 | 22.33668 | 113.98624 | 1834 ft | 221 kts | 81° |
| 2026-05-07 06:09 | 22.33826 | 114.00313 | 2257 ft | 229 kts | 92° |
| 2026-05-07 06:09 | 22.33545 | 114.02013 | 2802 ft | 232 kts | 111° |
| 2026-05-07 06:10 | 22.32740 | 114.03523 | 3346 ft | 235 kts | 131° |
| 2026-05-07 06:10 | 22.31496 | 114.04677 | 3922 ft | 238 kts | 148° |
| 2026-05-07 06:10 | 22.30073 | 114.05616 | 4512 ft | 241 kts | 151° |
| 2026-05-07 06:10 | 22.28616 | 114.06538 | 5033 ft | 244 kts | 151° |
| 2026-05-07 06:11 | 22.27144 | 114.07476 | 5594 ft | 246 kts | 151° |
| 2026-05-07 06:11 | 22.25639 | 114.08367 | 6175 ft | 247 kts | 160° |
| 2026-05-07 06:11 | 22.25111 | 114.08561 | 6354 ft | 246 kts | 168° |
| 2026-05-07 06:11 | 22.22216 | 114.08728 | 7000 ft | 261 kts | 183° |
| 2026-05-07 06:12 | 22.20352 | 114.08685 | 7328 ft | 274 kts | 183° |
| 2026-05-07 06:12 | 22.18423 | 114.08679 | 7858 ft | 280 kts | 179° |
| 2026-05-07 06:12 | 22.16548 | 114.09201 | 8415 ft | 288 kts | 153° |
| 2026-05-07 06:12 | 22.15068 | 114.10676 | 8992 ft | 297 kts | 124° |
| 2026-05-07 06:13 | 22.14062 | 114.12645 | 9593 ft | 302 kts | 118° |
| 2026-05-07 06:13 | 22.13128 | 114.14689 | 10145 ft | 306 kts | 118° |
| 2026-05-07 06:13 | 22.12153 | 114.16802 | 10413 ft | 322 kts | 118° |
| 2026-05-07 06:13 | 22.11120 | 114.19009 | 10630 ft | 338 kts | 118° |
| 2026-05-07 06:14 | 22.10031 | 114.21316 | 10850 ft | 352 kts | 118° |
| 2026-05-07 06:14 | 22.08892 | 114.23718 | 11056 ft | 366 kts | 118° |
| 2026-05-07 06:14 | 22.07539 | 114.26089 | 11224 ft | 377 kts | 132° |
| 2026-05-07 06:14 | 22.05574 | 114.27988 | 11420 ft | 385 kts | 145° |
| 2026-05-07 06:15 | 22.03405 | 114.29690 | 11651 ft | 393 kts | 146° |
| 2026-05-07 06:15 | 22.01167 | 114.31418 | 12001 ft | 398 kts | 146° |
| 2026-05-07 06:15 | 21.98911 | 114.33172 | 12396 ft | 401 kts | 146° |
| 2026-05-07 06:15 | 21.96652 | 114.34939 | 12805 ft | 404 kts | 146° |
| 2026-05-07 06:16 | 21.94369 | 114.36736 | 13207 ft | 407 kts | 146° |
| 2026-05-07 06:16 | 21.92068 | 114.38545 | 13590 ft | 410 kts | 146° |
| 2026-05-07 06:16 | 21.89758 | 114.40359 | 13947 ft | 413 kts | 146° |
| 2026-05-07 06:16 | 21.87432 | 114.42204 | 14296 ft | 416 kts | 144° |
| 2026-05-07 06:17 | 21.85360 | 114.44402 | 14623 ft | 422 kts | 128° |
| 2026-05-07 06:17 | 21.83982 | 114.47208 | 14980 ft | 427 kts | 110° |
| 2026-05-07 06:17 | 21.83136 | 114.50274 | 15324 ft | 430 kts | 105° |
| 2026-05-07 06:17 | 21.82368 | 114.53400 | 15650 ft | 432 kts | 105° |
| 2026-05-07 06:18 | 21.81600 | 114.56498 | 15986 ft | 435 kts | 106° |
| 2026-05-07 06:18 | 21.80806 | 114.59644 | 16325 ft | 437 kts | 106° |
| 2026-05-07 06:18 | 21.79999 | 114.62804 | 16657 ft | 439 kts | 106° |
| 2026-05-07 06:18 | 21.79182 | 114.65980 | 17001 ft | 441 kts | 106° |
| 2026-05-07 06:19 | 21.78357 | 114.69177 | 17317 ft | 444 kts | 106° |
| 2026-05-07 06:19 | 21.77525 | 114.72389 | 17659 ft | 446 kts | 106° |
| 2026-05-07 06:19 | 21.76688 | 114.75615 | 17985 ft | 448 kts | 106° |
| 2026-05-07 06:19 | 21.75847 | 114.78856 | 18292 ft | 451 kts | 106° |
| 2026-05-07 06:20 | 21.75006 | 114.82101 | 18573 ft | 452 kts | 106° |
| 2026-05-07 06:20 | 21.74406 | 114.85399 | 18833 ft | 455 kts | 96° |
| 2026-05-07 06:20 | 21.74183 | 114.88849 | 19123 ft | 457 kts | 92° |
| 2026-05-07 06:20 | 21.74146 | 114.92226 | 19402 ft | 459 kts | 90° |
| 2026-05-07 06:21 | 21.74189 | 114.95658 | 19676 ft | 460 kts | 89° |
| 2026-05-07 06:21 | 21.74253 | 114.99114 | 19956 ft | 462 kts | 89° |
| 2026-05-07 06:21 | 21.74308 | 115.02577 | 20225 ft | 464 kts | 89° |
| 2026-05-07 06:21 | 21.74342 | 115.06054 | 20500 ft | 466 kts | 89° |
| 2026-05-07 06:22 | 21.74359 | 115.09541 | 20779 ft | 467 kts | 90° |
| 2026-05-07 06:22 | 21.74359 | 115.16569 | 21331 ft | 471 kts | 90° |
| 2026-05-07 06:22 | 21.74352 | 115.20092 | 21610 ft | 473 kts | 90° |
| 2026-05-07 06:23 | 21.74346 | 115.23597 | 21889 ft | 475 kts | 90° |
| 2026-05-07 06:23 | 21.74340 | 115.27155 | 22179 ft | 476 kts | 90° |
| 2026-05-07 06:23 | 21.74331 | 115.30728 | 22458 ft | 478 kts | 90° |
| 2026-05-07 06:23 | 21.74321 | 115.34319 | 22744 ft | 480 kts | 90° |
| 2026-05-07 06:24 | 21.74310 | 115.37919 | 23024 ft | 482 kts | 90° |
| 2026-05-07 06:24 | 21.74299 | 115.41536 | 23311 ft | 484 kts | 90° |
| 2026-05-07 06:24 | 21.74288 | 115.45171 | 23581 ft | 486 kts | 90° |
| 2026-05-07 06:24 | 21.74277 | 115.48823 | 23805 ft | 488 kts | 90° |
| 2026-05-07 06:25 | 21.74265 | 115.52484 | 24029 ft | 490 kts | 90° |
| 2026-05-07 06:25 | 21.74252 | 115.56162 | 24267 ft | 492 kts | 90° |
| 2026-05-07 06:25 | 21.74239 | 115.59804 | 24508 ft | 494 kts | 90° |
| 2026-05-07 06:25 | 21.74225 | 115.63508 | 24763 ft | 496 kts | 90° |
| 2026-05-07 06:26 | 21.74211 | 115.67226 | 25024 ft | 498 kts | 90° |
| 2026-05-07 06:26 | 21.74196 | 115.70952 | 25296 ft | 499 kts | 90° |
| 2026-05-07 06:26 | 21.74180 | 115.74693 | 25566 ft | 501 kts | 90° |
| 2026-05-07 06:26 | 21.74164 | 115.78455 | 25846 ft | 504 kts | 90° |
| 2026-05-07 06:27 | 21.74146 | 115.82227 | 26124 ft | 506 kts | 90° |
| 2026-05-07 06:27 | 21.74127 | 115.86024 | 26422 ft | 508 kts | 90° |
| 2026-05-07 06:27 | 21.74108 | 115.89836 | 26721 ft | 510 kts | 90° |
| 2026-05-07 06:27 | 21.74087 | 115.93660 | 27032 ft | 512 kts | 90° |
| 2026-05-07 06:28 | 21.74066 | 115.97505 | 27335 ft | 515 kts | 90° |
| 2026-05-07 06:28 | 21.74043 | 116.01367 | 27643 ft | 517 kts | 90° |
| 2026-05-07 06:28 | 21.74019 | 116.05248 | 27941 ft | 519 kts | 90° |
| 2026-05-07 06:28 | 21.73995 | 116.09094 | 28223 ft | 522 kts | 90° |
| 2026-05-07 06:29 | 21.73969 | 116.13005 | 28512 ft | 524 kts | 90° |
| 2026-05-07 06:29 | 21.73943 | 116.16934 | 28789 ft | 526 kts | 90° |
| 2026-05-07 06:29 | 21.73915 | 116.20873 | 29060 ft | 528 kts | 90° |
| 2026-05-07 06:29 | 21.73886 | 116.24836 | 29316 ft | 530 kts | 90° |
| 2026-05-07 06:30 | 21.73857 | 116.28807 | 29587 ft | 532 kts | 90° |
| 2026-05-07 06:30 | 21.73826 | 116.32797 | 29881 ft | 533 kts | 90° |
| 2026-05-07 06:30 | 21.73794 | 116.36777 | 30220 ft | 532 kts | 90° |
| 2026-05-07 06:30 | 21.73773 | 116.39416 | 30428 ft | 532 kts | 90° |
| 2026-05-07 06:31 | 21.73739 | 116.43393 | 30721 ft | 531 kts | 90° |
| 2026-05-07 06:31 | 21.73705 | 116.47366 | 30909 ft | 532 kts | 90° |
| 2026-05-07 06:31 | 21.73635 | 116.55314 | 30936 ft | 531 kts | 90° |
| 2026-05-07 06:32 | 21.73560 | 116.63264 | 30933 ft | 531 kts | 90° |
| 2026-05-07 06:32 | 21.73482 | 116.71216 | 30934 ft | 531 kts | 90° |
| 2026-05-07 06:33 | 21.74010 | 116.79072 | 30932 ft | 530 kts | 76° |
| 2026-05-07 06:33 | 21.76264 | 116.86594 | 30933 ft | 528 kts | 68° |
| 2026-05-07 06:34 | 21.78934 | 116.93965 | 30933 ft | 528 kts | 67° |
| 2026-05-07 06:34 | 21.81647 | 117.01308 | 30934 ft | 528 kts | 67° |
| 2026-05-07 06:35 | 21.84335 | 117.08675 | 30933 ft | 528 kts | 67° |
| 2026-05-07 06:35 | 21.86998 | 117.16052 | 31258 ft | 528 kts | 67° |
| 2026-05-07 06:36 | 21.88320 | 117.19730 | 31626 ft | 525 kts | 67° |
| 2026-05-07 06:36 | 21.89618 | 117.23346 | 31976 ft | 524 kts | 67° |
| 2026-05-07 06:36 | 21.90933 | 117.27010 | 32289 ft | 523 kts | 67° |
| 2026-05-07 06:36 | 21.92246 | 117.30667 | 32604 ft | 522 kts | 66° |
| 2026-05-07 06:37 | 21.93556 | 117.34318 | 32870 ft | 522 kts | 66° |
| 2026-05-07 06:37 | 21.94864 | 117.37963 | 32942 ft | 522 kts | 66° |
| 2026-05-07 06:37 | 21.97476 | 117.45252 | 32923 ft | 521 kts | 66° |
| 2026-05-07 06:38 | 22.00514 | 117.52256 | 32927 ft | 518 kts | 57° |
| 2026-05-07 06:38 | 22.04199 | 117.58933 | 32944 ft | 517 kts | 56° |
| 2026-05-07 06:39 | 22.07966 | 117.65530 | 32926 ft | 517 kts | 56° |
| 2026-05-07 06:39 | 22.11741 | 117.72141 | 32935 ft | 517 kts | 56° |
| 2026-05-07 06:40 | 22.15484 | 117.78734 | 32931 ft | 517 kts | 56° |
| 2026-05-07 06:40 | 22.19238 | 117.85370 | 32930 ft | 517 kts | 56° |
| 2026-05-07 06:41 | 22.22983 | 117.92004 | 32933 ft | 517 kts | 56° |
| 2026-05-07 06:41 | 22.26731 | 117.98649 | 32935 ft | 517 kts | 56° |
| 2026-05-07 06:42 | 22.30501 | 118.05273 | 32934 ft | 517 kts | 55° |
| 2026-05-07 06:42 | 22.34325 | 118.11788 | 32933 ft | 517 kts | 54° |
| 2026-05-07 06:43 | 22.38178 | 118.18346 | 32935 ft | 517 kts | 55° |
| 2026-05-07 06:43 | 22.42011 | 118.24931 | 32935 ft | 517 kts | 55° |
| 2026-05-07 06:44 | 22.45769 | 118.31568 | 32933 ft | 517 kts | 56° |
| 2026-05-07 06:44 | 22.49509 | 118.38220 | 32934 ft | 517 kts | 56° |
| 2026-05-07 06:45 | 22.53257 | 118.44871 | 32933 ft | 517 kts | 56° |
| 2026-05-07 06:45 | 22.57008 | 118.51518 | 32932 ft | 517 kts | 56° |
| 2026-05-07 06:46 | 22.60769 | 118.58149 | 32938 ft | 517 kts | 55° |
| 2026-05-07 06:46 | 22.64528 | 118.64728 | 32933 ft | 517 kts | 55° |
| 2026-05-07 06:47 | 22.68309 | 118.71360 | 32930 ft | 517 kts | 56° |
| 2026-05-07 06:47 | 22.72083 | 118.78000 | 32931 ft | 517 kts | 56° |
| 2026-05-07 06:48 | 22.75854 | 118.84648 | 32931 ft | 517 kts | 56° |
| 2026-05-07 06:48 | 22.79620 | 118.91298 | 32931 ft | 517 kts | 56° |
| 2026-05-07 06:49 | 22.83379 | 118.97942 | 32926 ft | 517 kts | 56° |
| 2026-05-07 06:49 | 22.87120 | 119.04561 | 32929 ft | 517 kts | 56° |
| 2026-05-07 06:50 | 22.90871 | 119.11209 | 32928 ft | 517 kts | 56° |
| 2026-05-07 06:50 | 22.94623 | 119.17866 | 32928 ft | 517 kts | 56° |
| 2026-05-07 06:51 | 22.98375 | 119.24533 | 32927 ft | 517 kts | 56° |
| 2026-05-07 06:51 | 23.02126 | 119.31205 | 32929 ft | 517 kts | 56° |
| 2026-05-07 06:52 | 23.05867 | 119.37869 | 32926 ft | 517 kts | 56° |
| 2026-05-07 06:52 | 23.09612 | 119.44548 | 32923 ft | 517 kts | 56° |
| 2026-05-07 06:53 | 23.13351 | 119.51226 | 32920 ft | 517 kts | 56° |
| 2026-05-07 06:53 | 23.17066 | 119.57869 | 32921 ft | 517 kts | 56° |
| 2026-05-07 06:54 | 23.20804 | 119.64571 | 32923 ft | 517 kts | 56° |
| 2026-05-07 06:54 | 23.24545 | 119.71267 | 32919 ft | 517 kts | 56° |
| 2026-05-07 06:55 | 23.28281 | 119.77961 | 32913 ft | 517 kts | 56° |
| 2026-05-07 06:55 | 23.32011 | 119.84658 | 32915 ft | 518 kts | 56° |
| 2026-05-07 06:56 | 23.35814 | 119.91239 | 32921 ft | 515 kts | 50° |
| 2026-05-07 06:56 | 23.40640 | 119.96929 | 32918 ft | 511 kts | 41° |
| 2026-05-07 06:57 | 23.45789 | 120.02278 | 32920 ft | 511 kts | 40° |
| 2026-05-07 06:57 | 23.50983 | 120.07572 | 32924 ft | 511 kts | 40° |
| 2026-05-07 06:58 | 23.56160 | 120.12878 | 32928 ft | 511 kts | 40° |
| 2026-05-07 06:58 | 23.61337 | 120.18216 | 32926 ft | 511 kts | 40° |
| 2026-05-07 06:59 | 23.66478 | 120.23533 | 32924 ft | 512 kts | 40° |
| 2026-05-07 06:59 | 23.71639 | 120.28877 | 32973 ft | 512 kts | 40° |
| 2026-05-07 07:00 | 23.74221 | 120.31552 | 33236 ft | 512 kts | 40° |
| 2026-05-07 07:00 | 23.76802 | 120.34228 | 33596 ft | 510 kts | 40° |
| 2026-05-07 07:00 | 23.79370 | 120.36892 | 33928 ft | 508 kts | 40° |
| 2026-05-07 07:00 | 23.81934 | 120.39553 | 34172 ft | 508 kts | 40° |
| 2026-05-07 07:01 | 23.84494 | 120.42210 | 34406 ft | 507 kts | 40° |
| 2026-05-07 07:01 | 23.87059 | 120.44875 | 34650 ft | 507 kts | 40° |
| 2026-05-07 07:01 | 23.89613 | 120.47530 | 34865 ft | 506 kts | 40° |
| 2026-05-07 07:01 | 23.92172 | 120.50191 | 34937 ft | 510 kts | 40° |
| 2026-05-07 07:02 | 23.97316 | 120.55598 | 34941 ft | 513 kts | 41° |
| 2026-05-07 07:02 | 24.02413 | 120.60992 | 34945 ft | 513 kts | 41° |
| 2026-05-07 07:03 | 24.07551 | 120.66429 | 34942 ft | 513 kts | 41° |
| 2026-05-07 07:03 | 24.12690 | 120.71866 | 34951 ft | 513 kts | 41° |
| 2026-05-07 07:04 | 24.17795 | 120.77271 | 34950 ft | 514 kts | 41° |
| 2026-05-07 07:04 | 24.22952 | 120.82738 | 34951 ft | 514 kts | 41° |
| 2026-05-07 07:05 | 24.28091 | 120.88192 | 34955 ft | 515 kts | 41° |
| 2026-05-07 07:05 | 24.33235 | 120.93658 | 34970 ft | 515 kts | 41° |
| 2026-05-07 07:06 | 24.38377 | 120.99127 | 34985 ft | 515 kts | 41° |
| 2026-05-07 07:06 | 24.43231 | 121.04871 | 34982 ft | 518 kts | 47° |
| 2026-05-07 07:07 | 24.47780 | 121.11035 | 34982 ft | 519 kts | 48° |
| 2026-05-07 07:07 | 24.52274 | 121.17263 | 34987 ft | 520 kts | 49° |
| 2026-05-07 07:08 | 24.56743 | 121.23460 | 34985 ft | 520 kts | 49° |
| 2026-05-07 07:08 | 24.61247 | 121.29690 | 34980 ft | 520 kts | 49° |
| 2026-05-07 07:09 | 24.65753 | 121.35927 | 34967 ft | 521 kts | 48° |
| 2026-05-07 07:09 | 24.70250 | 121.42161 | 34958 ft | 521 kts | 48° |
| 2026-05-07 07:10 | 24.74762 | 121.48422 | 34936 ft | 522 kts | 49° |
| 2026-05-07 07:10 | 24.79268 | 121.54689 | 34916 ft | 522 kts | 48° |
| 2026-05-07 07:11 | 24.83770 | 121.60954 | 34907 ft | 522 kts | 48° |
| 2026-05-07 07:11 | 24.88270 | 121.67230 | 34932 ft | 522 kts | 49° |
| 2026-05-07 07:12 | 24.90514 | 121.70358 | 35253 ft | 518 kts | 48° |
| 2026-05-07 07:12 | 24.92769 | 121.73362 | 35594 ft | 513 kts | 45° |
| 2026-05-07 07:12 | 24.95097 | 121.76314 | 35970 ft | 508 kts | 44° |
| 2026-05-07 07:12 | 24.97433 | 121.79224 | 36261 ft | 506 kts | 44° |
| 2026-05-07 07:13 | 24.99767 | 121.82125 | 36518 ft | 504 kts | 44° |
| 2026-05-07 07:13 | 25.02087 | 121.85029 | 36748 ft | 504 kts | 44° |
| 2026-05-07 07:13 | 25.04389 | 121.87931 | 36894 ft | 505 kts | 44° |
| 2026-05-07 07:13 | 25.06707 | 121.90868 | 36915 ft | 508 kts | 44° |
| 2026-05-07 07:14 | 25.11319 | 121.96754 | 36922 ft | 509 kts | 44° |
| 2026-05-07 07:14 | 25.15939 | 122.02695 | 36925 ft | 509 kts | 45° |
| 2026-05-07 07:15 | 25.20526 | 122.08653 | 36926 ft | 509 kts | 45° |
| 2026-05-07 07:15 | 25.25104 | 122.14606 | 36925 ft | 509 kts | 44° |
| 2026-05-07 07:16 | 25.29667 | 122.20539 | 36925 ft | 509 kts | 44° |
| 2026-05-07 07:16 | 25.34257 | 122.26513 | 36926 ft | 509 kts | 44° |
| 2026-05-07 07:17 | 25.38844 | 122.32489 | 36923 ft | 509 kts | 44° |
| 2026-05-07 07:17 | 25.43435 | 122.38478 | 36923 ft | 509 kts | 44° |
| 2026-05-07 07:18 | 25.47979 | 122.44414 | 36928 ft | 510 kts | 44° |
| 2026-05-07 07:18 | 25.52564 | 122.50414 | 36924 ft | 510 kts | 44° |
| 2026-05-07 07:19 | 25.56393 | 122.55394 | 36920 ft | 510 kts | 44° |
| 2026-05-07 07:19 | 25.61002 | 122.61371 | 36924 ft | 510 kts | 44° |
| 2026-05-07 07:20 | 25.65609 | 122.67360 | 36924 ft | 510 kts | 44° |
| 2026-05-07 07:20 | 25.70214 | 122.73362 | 36927 ft | 510 kts | 44° |
| 2026-05-07 07:21 | 25.74770 | 122.79311 | 36924 ft | 510 kts | 44° |
| 2026-05-07 07:21 | 25.79371 | 122.85327 | 36926 ft | 510 kts | 44° |
| 2026-05-07 07:22 | 25.83968 | 122.91344 | 36928 ft | 511 kts | 44° |
| 2026-05-07 07:22 | 25.88563 | 122.97368 | 36924 ft | 511 kts | 44° |
| 2026-05-07 07:23 | 25.93159 | 123.03395 | 36924 ft | 511 kts | 44° |
| 2026-05-07 07:23 | 25.97720 | 123.09393 | 36926 ft | 511 kts | 44° |
| 2026-05-07 07:24 | 26.02302 | 123.15433 | 36928 ft | 511 kts | 44° |
| 2026-05-07 07:24 | 26.06892 | 123.21487 | 36931 ft | 511 kts | 44° |
| 2026-05-07 07:25 | 26.13774 | 123.30578 | 36927 ft | 512 kts | 44° |
| 2026-05-07 07:26 | 26.18359 | 123.36643 | 36930 ft | 512 kts | 44° |
| 2026-05-07 07:26 | 26.22918 | 123.42684 | 36932 ft | 512 kts | 44° |
| 2026-05-07 07:27 | 26.27498 | 123.48761 | 36933 ft | 512 kts | 44° |
| 2026-05-07 07:27 | 26.32078 | 123.54845 | 36934 ft | 512 kts | 44° |
| 2026-05-07 07:28 | 26.36662 | 123.60943 | 36937 ft | 513 kts | 44° |
| 2026-05-07 07:28 | 26.41239 | 123.67039 | 36945 ft | 513 kts | 44° |
| 2026-05-07 07:29 | 26.45823 | 123.73154 | 36930 ft | 513 kts | 44° |
| 2026-05-07 07:29 | 26.50413 | 123.79285 | 36954 ft | 514 kts | 44° |
| 2026-05-07 07:30 | 26.54995 | 123.85412 | 36947 ft | 514 kts | 44° |
| 2026-05-07 07:30 | 26.59551 | 123.91515 | 36938 ft | 514 kts | 44° |
| 2026-05-07 07:31 | 26.64133 | 123.97661 | 36937 ft | 514 kts | 44° |
| 2026-05-07 07:31 | 26.68729 | 124.03825 | 36944 ft | 515 kts | 44° |
| 2026-05-07 07:32 | 26.73324 | 124.09970 | 36940 ft | 515 kts | 44° |
| 2026-05-07 07:32 | 26.77919 | 124.16121 | 36942 ft | 515 kts | 44° |
| 2026-05-07 07:33 | 26.82518 | 124.22290 | 36939 ft | 515 kts | 44° |
| 2026-05-07 07:33 | 26.87080 | 124.28420 | 36950 ft | 516 kts | 44° |
| 2026-05-07 07:34 | 26.91672 | 124.34599 | 36946 ft | 516 kts | 44° |
| 2026-05-07 07:34 | 26.96277 | 124.40804 | 36947 ft | 516 kts | 44° |
| 2026-05-07 07:35 | 27.00837 | 124.46953 | 36942 ft | 517 kts | 44° |
| 2026-05-07 07:35 | 27.05439 | 124.53166 | 36949 ft | 517 kts | 44° |
| 2026-05-07 07:36 | 27.10033 | 124.59377 | 36948 ft | 517 kts | 44° |
| 2026-05-07 07:36 | 27.14634 | 124.65608 | 36947 ft | 518 kts | 44° |
| 2026-05-07 07:37 | 27.19237 | 124.71849 | 36951 ft | 518 kts | 44° |
| 2026-05-07 07:37 | 27.23798 | 124.78042 | 36952 ft | 518 kts | 45° |
| 2026-05-07 07:38 | 27.28392 | 124.84290 | 36949 ft | 518 kts | 45° |
| 2026-05-07 07:38 | 27.32994 | 124.90555 | 36957 ft | 519 kts | 45° |
| 2026-05-07 07:39 | 27.37587 | 124.96818 | 36955 ft | 519 kts | 45° |
| 2026-05-07 07:39 | 27.42181 | 125.03087 | 36953 ft | 519 kts | 45° |
| 2026-05-07 07:40 | 27.46816 | 125.09334 | 36956 ft | 519 kts | 44° |
| 2026-05-07 07:40 | 27.51426 | 125.15536 | 36956 ft | 519 kts | 44° |
| 2026-05-07 07:41 | 27.56063 | 125.21797 | 36958 ft | 519 kts | 45° |
| 2026-05-07 07:41 | 27.60685 | 125.28057 | 36958 ft | 520 kts | 45° |
| 2026-05-07 07:42 | 27.65309 | 125.34331 | 36958 ft | 520 kts | 45° |
| 2026-05-07 07:42 | 27.69933 | 125.40613 | 36954 ft | 520 kts | 45° |
| 2026-05-07 07:43 | 27.74556 | 125.46904 | 36956 ft | 521 kts | 45° |
| 2026-05-07 07:43 | 27.79152 | 125.53166 | 36951 ft | 521 kts | 45° |
| 2026-05-07 07:44 | 27.83781 | 125.59481 | 36967 ft | 521 kts | 45° |
| 2026-05-07 07:44 | 27.88401 | 125.65796 | 36953 ft | 521 kts | 45° |
| 2026-05-07 07:45 | 27.93021 | 125.72119 | 36960 ft | 521 kts | 45° |
| 2026-05-07 07:45 | 27.97613 | 125.78412 | 36965 ft | 521 kts | 45° |
| 2026-05-07 07:46 | 28.02230 | 125.84749 | 36966 ft | 521 kts | 45° |
| 2026-05-07 07:46 | 28.06841 | 125.91088 | 36966 ft | 521 kts | 45° |
| 2026-05-07 07:47 | 28.11450 | 125.97434 | 36964 ft | 521 kts | 45° |
| 2026-05-07 07:47 | 28.16055 | 126.03782 | 36966 ft | 521 kts | 45° |
| 2026-05-07 07:48 | 28.20624 | 126.10091 | 36970 ft | 521 kts | 45° |
| 2026-05-07 07:48 | 28.25232 | 126.16464 | 36967 ft | 521 kts | 45° |
| 2026-05-07 07:49 | 28.29826 | 126.22827 | 36966 ft | 521 kts | 45° |
| 2026-05-07 07:49 | 28.34418 | 126.29195 | 36968 ft | 521 kts | 45° |
| 2026-05-07 07:50 | 28.39011 | 126.35574 | 36963 ft | 522 kts | 45° |
| 2026-05-07 07:50 | 28.43604 | 126.41963 | 36967 ft | 522 kts | 45° |
| 2026-05-07 07:51 | 28.48202 | 126.48371 | 36964 ft | 523 kts | 46° |
| 2026-05-07 07:51 | 28.52771 | 126.54746 | 36967 ft | 523 kts | 46° |
| 2026-05-07 07:52 | 28.57379 | 126.61185 | 36960 ft | 524 kts | 46° |
| 2026-05-07 07:52 | 28.61980 | 126.67625 | 36967 ft | 524 kts | 46° |
| 2026-05-07 07:53 | 28.66584 | 126.74081 | 36964 ft | 525 kts | 46° |
| 2026-05-07 07:53 | 28.71185 | 126.80540 | 36964 ft | 525 kts | 46° |
| 2026-05-07 07:54 | 28.75754 | 126.86966 | 36962 ft | 525 kts | 46° |
| 2026-05-07 07:54 | 28.80343 | 126.93430 | 36966 ft | 525 kts | 46° |
| 2026-05-07 07:55 | 28.84936 | 126.99910 | 36967 ft | 524 kts | 47° |
| 2026-05-07 07:55 | 28.89523 | 127.06390 | 36967 ft | 524 kts | 47° |
| 2026-05-07 07:56 | 28.94104 | 127.12872 | 36964 ft | 525 kts | 47° |
| 2026-05-07 07:56 | 28.98685 | 127.19365 | 36965 ft | 525 kts | 47° |
| 2026-05-07 07:57 | 29.03265 | 127.25866 | 36965 ft | 525 kts | 47° |
| 2026-05-07 07:57 | 29.07816 | 127.32337 | 36963 ft | 525 kts | 47° |
| 2026-05-07 07:58 | 29.12388 | 127.38848 | 36968 ft | 525 kts | 47° |
| 2026-05-07 07:58 | 29.16960 | 127.45367 | 36967 ft | 525 kts | 47° |
| 2026-05-07 07:59 | 29.21535 | 127.51901 | 36963 ft | 525 kts | 47° |
| 2026-05-07 07:59 | 29.26078 | 127.58401 | 36965 ft | 526 kts | 47° |
| 2026-05-07 08:00 | 29.30650 | 127.64954 | 36966 ft | 526 kts | 47° |
| 2026-05-07 08:00 | 29.35216 | 127.71507 | 36963 ft | 526 kts | 47° |
| 2026-05-07 08:01 | 29.39790 | 127.78082 | 36963 ft | 527 kts | 48° |
| 2026-05-07 08:01 | 29.44365 | 127.84669 | 36964 ft | 528 kts | 48° |
| 2026-05-07 08:02 | 29.48948 | 127.91278 | 36962 ft | 528 kts | 48° |
| 2026-05-07 08:02 | 29.53490 | 127.97841 | 36962 ft | 528 kts | 48° |
| 2026-05-07 08:03 | 29.58059 | 128.04446 | 36960 ft | 529 kts | 48° |
| 2026-05-07 08:03 | 29.62647 | 128.11084 | 36960 ft | 529 kts | 48° |
| 2026-05-07 08:04 | 29.67220 | 128.17713 | 36963 ft | 530 kts | 48° |
| 2026-05-07 08:04 | 29.71800 | 128.24364 | 36962 ft | 531 kts | 48° |
| 2026-05-07 08:05 | 29.76385 | 128.31035 | 36963 ft | 531 kts | 48° |
| 2026-05-07 08:05 | 29.80942 | 128.37675 | 36961 ft | 532 kts | 49° |
| 2026-05-07 08:06 | 29.85526 | 128.44364 | 36964 ft | 532 kts | 49° |
| 2026-05-07 08:06 | 29.90105 | 128.51059 | 36961 ft | 532 kts | 49° |
| 2026-05-07 08:07 | 29.94693 | 128.57777 | 36963 ft | 532 kts | 49° |
| 2026-05-07 08:07 | 29.98499 | 128.63358 | 36966 ft | 532 kts | 49° |
| 2026-05-07 08:08 | 30.03076 | 128.70081 | 36963 ft | 532 kts | 49° |
| 2026-05-07 08:08 | 30.08390 | 128.77901 | 36963 ft | 532 kts | 49° |
| 2026-05-07 08:09 | 30.12215 | 128.83539 | 36961 ft | 532 kts | 49° |
| 2026-05-07 08:09 | 30.16748 | 128.90230 | 36962 ft | 532 kts | 49° |
| 2026-05-07 08:10 | 30.21312 | 128.96979 | 36960 ft | 532 kts | 49° |
| 2026-05-07 08:10 | 30.25867 | 129.03722 | 36962 ft | 532 kts | 49° |
| 2026-05-07 08:11 | 30.30418 | 129.10476 | 36960 ft | 532 kts | 49° |
| 2026-05-07 08:11 | 30.34970 | 129.17244 | 36952 ft | 532 kts | 49° |
| 2026-05-07 08:12 | 30.39519 | 129.24018 | 36968 ft | 532 kts | 49° |
| 2026-05-07 08:12 | 30.44034 | 129.30751 | 36946 ft | 532 kts | 49° |
| 2026-05-07 08:13 | 30.48573 | 129.37531 | 36945 ft | 532 kts | 49° |
| 2026-05-07 08:13 | 30.53113 | 129.44325 | 36958 ft | 532 kts | 49° |
| 2026-05-07 08:14 | 30.57657 | 129.51138 | 36959 ft | 533 kts | 49° |
| 2026-05-07 08:14 | 30.62193 | 129.57947 | 36960 ft | 533 kts | 49° |
| 2026-05-07 08:15 | 30.66701 | 129.64729 | 36959 ft | 533 kts | 49° |
| 2026-05-07 08:15 | 30.71227 | 129.71548 | 36954 ft | 533 kts | 49° |
| 2026-05-07 08:16 | 30.75750 | 129.78374 | 36951 ft | 533 kts | 49° |
| 2026-05-07 08:16 | 30.80284 | 129.85230 | 36957 ft | 533 kts | 49° |
| 2026-05-07 08:17 | 30.85132 | 129.91687 | 36952 ft | 525 kts | 36° |
| 2026-05-07 08:17 | 30.90966 | 129.96697 | 36955 ft | 520 kts | 29° |
| 2026-05-07 08:18 | 30.96949 | 130.01341 | 36951 ft | 520 kts | 28° |
| 2026-05-07 08:18 | 31.02998 | 130.05977 | 36954 ft | 520 kts | 28° |
| 2026-05-07 08:19 | 31.09026 | 130.10637 | 36957 ft | 520 kts | 28° |
| 2026-05-07 08:19 | 31.15050 | 130.15328 | 36954 ft | 520 kts | 29° |
| 2026-05-07 08:20 | 31.21024 | 130.19994 | 36960 ft | 520 kts | 29° |
| 2026-05-07 08:20 | 31.27040 | 130.24699 | 36957 ft | 520 kts | 29° |
| 2026-05-07 08:21 | 31.33059 | 130.29412 | 36956 ft | 520 kts | 29° |
| 2026-05-07 08:21 | 31.39044 | 130.34107 | 36954 ft | 520 kts | 29° |
| 2026-05-07 08:22 | 31.45059 | 130.38833 | 36952 ft | 519 kts | 29° |
| 2026-05-07 08:22 | 31.51060 | 130.43552 | 36954 ft | 519 kts | 29° |
| 2026-05-07 08:23 | 31.57064 | 130.48284 | 36952 ft | 519 kts | 29° |
| 2026-05-07 08:23 | 31.63066 | 130.53021 | 36952 ft | 519 kts | 30° |
| 2026-05-07 08:24 | 31.69019 | 130.57727 | 36942 ft | 519 kts | 30° |
| 2026-05-07 08:24 | 31.75072 | 130.62347 | 36942 ft | 517 kts | 27° |
| 2026-05-07 08:25 | 31.81217 | 130.66738 | 36943 ft | 517 kts | 27° |
| 2026-05-07 08:25 | 31.87362 | 130.71138 | 36935 ft | 517 kts | 27° |
| 2026-05-07 08:26 | 31.96562 | 130.77831 | 36950 ft | 517 kts | 27° |
| 2026-05-07 08:26 | 32.02634 | 130.82278 | 36949 ft | 518 kts | 28° |
| 2026-05-07 08:27 | 32.08764 | 130.86772 | 36947 ft | 518 kts | 28° |
| 2026-05-07 08:27 | 32.14897 | 130.91273 | 36950 ft | 519 kts | 28° |
| 2026-05-07 08:28 | 32.21062 | 130.95730 | 36943 ft | 519 kts | 27° |
| 2026-05-07 08:28 | 32.27182 | 131.00128 | 36948 ft | 518 kts | 27° |
| 2026-05-07 08:29 | 32.33345 | 131.04574 | 36949 ft | 519 kts | 27° |
| 2026-05-07 08:29 | 32.39501 | 131.09033 | 36946 ft | 519 kts | 27° |
| 2026-05-07 08:30 | 32.45655 | 131.13533 | 36943 ft | 520 kts | 28° |
| 2026-05-07 08:30 | 32.51788 | 131.18102 | 36942 ft | 520 kts | 28° |
| 2026-05-07 08:31 | 32.57877 | 131.22651 | 36938 ft | 520 kts | 28° |
| 2026-05-07 08:31 | 32.64001 | 131.27228 | 36939 ft | 520 kts | 28° |
| 2026-05-07 08:32 | 32.70129 | 131.31803 | 36935 ft | 520 kts | 28° |
| 2026-05-07 08:32 | 32.76270 | 131.36392 | 36934 ft | 521 kts | 28° |
| 2026-05-07 08:33 | 32.82412 | 131.40990 | 36932 ft | 521 kts | 28° |
| 2026-05-07 08:33 | 32.88522 | 131.45510 | 36930 ft | 520 kts | 28° |
| 2026-05-07 08:34 | 32.94683 | 131.50042 | 36926 ft | 520 kts | 28° |
| 2026-05-07 08:34 | 33.00843 | 131.54587 | 36922 ft | 520 kts | 28° |
| 2026-05-07 08:35 | 33.07003 | 131.59148 | 36922 ft | 521 kts | 28° |
| 2026-05-07 08:35 | 33.13174 | 131.63727 | 36918 ft | 522 kts | 28° |
| 2026-05-07 08:36 | 33.19311 | 131.68387 | 36914 ft | 524 kts | 33° |
| 2026-05-07 08:36 | 33.24484 | 131.74492 | 36920 ft | 530 kts | 50° |
| 2026-05-07 08:37 | 33.28855 | 131.81610 | 36914 ft | 532 kts | 53° |
| 2026-05-07 08:37 | 33.33094 | 131.88882 | 36912 ft | 533 kts | 53° |
| 2026-05-07 08:38 | 33.37336 | 131.96160 | 36912 ft | 532 kts | 53° |
| 2026-05-07 08:38 | 33.41585 | 132.03402 | 36916 ft | 531 kts | 53° |
| 2026-05-07 08:39 | 33.45835 | 132.10633 | 36917 ft | 530 kts | 53° |
| 2026-05-07 08:39 | 33.50160 | 132.17717 | 36916 ft | 529 kts | 51° |
| 2026-05-07 08:40 | 33.54683 | 132.24669 | 36921 ft | 528 kts | 51° |
| 2026-05-07 08:40 | 33.59194 | 132.31628 | 36920 ft | 528 kts | 51° |
| 2026-05-07 08:41 | 33.63669 | 132.38629 | 36918 ft | 528 kts | 51° |
| 2026-05-07 08:41 | 33.68096 | 132.45604 | 36918 ft | 528 kts | 52° |
| 2026-05-07 08:42 | 33.72547 | 132.52634 | 36918 ft | 529 kts | 52° |
| 2026-05-07 08:42 | 33.77003 | 132.59684 | 36912 ft | 529 kts | 52° |
| 2026-05-07 08:43 | 33.81395 | 132.66769 | 36909 ft | 529 kts | 56° |
| 2026-05-07 08:43 | 33.84553 | 132.74750 | 36908 ft | 529 kts | 70° |
| 2026-05-07 08:44 | 33.86959 | 132.83131 | 36914 ft | 530 kts | 72° |
| 2026-05-07 08:44 | 33.89230 | 132.91506 | 36915 ft | 530 kts | 72° |
| 2026-05-07 08:45 | 33.91527 | 132.99962 | 36913 ft | 530 kts | 72° |
| 2026-05-07 08:45 | 33.93836 | 133.08410 | 36926 ft | 531 kts | 72° |
| 2026-05-07 08:46 | 33.96151 | 133.16861 | 36924 ft | 532 kts | 72° |
| 2026-05-07 08:46 | 33.98457 | 133.25303 | 36925 ft | 533 kts | 72° |
| 2026-05-07 08:47 | 34.00770 | 133.33797 | 36926 ft | 534 kts | 72° |
| 2026-05-07 08:47 | 34.03077 | 133.42303 | 36928 ft | 534 kts | 72° |
| 2026-05-07 08:48 | 34.05433 | 133.50785 | 36926 ft | 534 kts | 70° |
| 2026-05-07 08:48 | 34.08025 | 133.59183 | 36924 ft | 534 kts | 69° |
| 2026-05-07 08:49 | 34.10642 | 133.67561 | 36930 ft | 533 kts | 70° |
| 2026-05-07 08:49 | 34.13219 | 133.75963 | 36931 ft | 533 kts | 70° |
| 2026-05-07 08:50 | 34.15751 | 133.84316 | 36932 ft | 533 kts | 70° |
| 2026-05-07 08:50 | 34.18296 | 133.92731 | 36942 ft | 533 kts | 70° |
| 2026-05-07 08:51 | 34.20860 | 134.01145 | 36934 ft | 533 kts | 72° |
| 2026-05-07 08:51 | 34.22785 | 134.09724 | 36941 ft | 532 kts | 76° |
| 2026-05-07 08:52 | 34.24547 | 134.18419 | 36936 ft | 532 kts | 77° |
| 2026-05-07 08:52 | 34.26272 | 134.27116 | 36935 ft | 532 kts | 77° |
| 2026-05-07 08:53 | 34.28002 | 134.35830 | 36922 ft | 532 kts | 77° |
| 2026-05-07 08:53 | 34.29730 | 134.44529 | 36917 ft | 531 kts | 77° |
| 2026-05-07 08:54 | 34.31453 | 134.53217 | 36916 ft | 531 kts | 77° |
| 2026-05-07 08:54 | 34.33157 | 134.61849 | 36919 ft | 530 kts | 77° |
| 2026-05-07 08:55 | 34.34861 | 134.70517 | 36922 ft | 530 kts | 77° |
| 2026-05-07 08:55 | 34.36559 | 134.79188 | 36928 ft | 530 kts | 77° |
| 2026-05-07 08:56 | 34.38256 | 134.87887 | 36930 ft | 530 kts | 77° |
| 2026-05-07 08:56 | 34.39770 | 134.96561 | 36920 ft | 530 kts | 80° |
| 2026-05-07 08:57 | 34.41130 | 135.05340 | 36914 ft | 530 kts | 80° |
| 2026-05-07 08:58 | 34.41708 | 135.09061 | 36911 ft | 530 kts | 80° |
| 2026-05-07 08:58 | 34.43100 | 135.17878 | 36908 ft | 531 kts | 80° |
| 2026-05-07 08:59 | 34.44499 | 135.26612 | 36914 ft | 531 kts | 80° |
| 2026-05-07 08:59 | 34.45906 | 135.35404 | 36912 ft | 531 kts | 80° |
| 2026-05-07 09:00 | 34.47305 | 135.44188 | 36909 ft | 531 kts | 80° |
| 2026-05-07 09:00 | 34.48698 | 135.52998 | 36911 ft | 531 kts | 80° |
| 2026-05-07 09:01 | 34.50083 | 135.61792 | 36910 ft | 531 kts | 80° |
| 2026-05-07 09:01 | 34.51463 | 135.70585 | 36910 ft | 531 kts | 80° |
| 2026-05-07 09:02 | 34.52834 | 135.79375 | 36909 ft | 530 kts | 81° |
| 2026-05-07 09:02 | 34.54196 | 135.88176 | 36909 ft | 530 kts | 81° |
| 2026-05-07 09:03 | 34.55542 | 135.96919 | 36902 ft | 530 kts | 81° |
| 2026-05-07 09:03 | 34.56893 | 136.05719 | 36900 ft | 530 kts | 81° |
| 2026-05-07 09:04 | 34.58268 | 136.14531 | 36900 ft | 531 kts | 78° |
| 2026-05-07 09:04 | 34.60883 | 136.22898 | 36898 ft | 531 kts | 63° |
| 2026-05-07 09:05 | 34.64276 | 136.30862 | 36896 ft | 531 kts | 61° |
| 2026-05-07 09:05 | 34.67757 | 136.38731 | 36895 ft | 532 kts | 61° |
| 2026-05-07 09:06 | 34.71248 | 136.46667 | 36894 ft | 531 kts | 62° |
| 2026-05-07 09:06 | 34.74710 | 136.54618 | 36900 ft | 531 kts | 62° |
| 2026-05-07 09:07 | 34.78147 | 136.62554 | 36904 ft | 530 kts | 62° |
| 2026-05-07 09:07 | 34.81562 | 136.70457 | 36911 ft | 530 kts | 62° |
| 2026-05-07 09:08 | 34.85282 | 136.78201 | 36913 ft | 528 kts | 51° |
| 2026-05-07 09:08 | 34.90510 | 136.84321 | 36915 ft | 523 kts | 35° |
| 2026-05-07 09:09 | 34.96427 | 136.89496 | 36907 ft | 523 kts | 32° |
| 2026-05-07 09:09 | 35.02429 | 136.94529 | 36902 ft | 524 kts | 32° |
| 2026-05-07 09:10 | 35.08427 | 136.99594 | 36895 ft | 524 kts | 32° |
| 2026-05-07 09:10 | 35.14413 | 137.04703 | 36894 ft | 525 kts | 33° |
| 2026-05-07 09:11 | 35.20355 | 137.09799 | 36896 ft | 525 kts | 33° |
| 2026-05-07 09:11 | 35.26358 | 137.14960 | 36898 ft | 526 kts | 33° |
| 2026-05-07 09:12 | 35.32347 | 137.20116 | 36905 ft | 527 kts | 33° |
| 2026-05-07 09:12 | 35.37958 | 137.25906 | 36913 ft | 531 kts | 47° |
| 2026-05-07 09:13 | 35.40166 | 137.29535 | 36919 ft | 531 kts | 59° |
| 2026-05-07 09:13 | 35.41928 | 137.33513 | 36916 ft | 531 kts | 63° |
| 2026-05-07 09:13 | 35.45080 | 137.41654 | 36928 ft | 532 kts | 66° |
| 2026-05-07 09:14 | 35.48136 | 137.49931 | 36934 ft | 531 kts | 66° |
| 2026-05-07 09:14 | 35.51231 | 137.58171 | 36937 ft | 531 kts | 65° |
| 2026-05-07 09:15 | 35.54358 | 137.66393 | 36946 ft | 530 kts | 65° |
| 2026-05-07 09:15 | 35.57474 | 137.74594 | 36948 ft | 530 kts | 65° |
| 2026-05-07 09:16 | 35.60555 | 137.82759 | 36946 ft | 530 kts | 66° |
| 2026-05-07 09:16 | 35.63546 | 137.91038 | 36951 ft | 529 kts | 67° |
| 2026-05-07 09:17 | 35.66499 | 137.99338 | 36952 ft | 529 kts | 67° |
| 2026-05-07 09:17 | 35.69534 | 138.07594 | 36947 ft | 529 kts | 65° |
| 2026-05-07 09:18 | 35.72736 | 138.15763 | 36949 ft | 529 kts | 64° |
| 2026-05-07 09:18 | 35.75906 | 138.23859 | 36938 ft | 529 kts | 65° |
| 2026-05-07 09:19 | 35.79065 | 138.32027 | 36936 ft | 526 kts | 65° |
| 2026-05-07 09:19 | 35.82202 | 138.40200 | 36932 ft | 527 kts | 65° |
| 2026-05-07 09:20 | 35.85325 | 138.48382 | 36937 ft | 526 kts | 65° |
| 2026-05-07 09:20 | 35.88437 | 138.56551 | 36928 ft | 526 kts | 65° |
| 2026-05-07 09:21 | 35.91518 | 138.64649 | 36925 ft | 524 kts | 65° |
| 2026-05-07 09:21 | 35.94607 | 138.72822 | 36921 ft | 525 kts | 65° |
| 2026-05-07 09:22 | 35.97680 | 138.80987 | 36927 ft | 525 kts | 65° |
| 2026-05-07 09:22 | 36.00768 | 138.89204 | 36923 ft | 527 kts | 66° |
| 2026-05-07 09:23 | 36.03834 | 138.97373 | 36912 ft | 527 kts | 66° |
| 2026-05-07 09:23 | 36.06918 | 139.05613 | 36912 ft | 528 kts | 66° |
| 2026-05-07 09:24 | 36.09997 | 139.13863 | 36918 ft | 528 kts | 66° |
| 2026-05-07 09:24 | 36.13075 | 139.22132 | 36907 ft | 528 kts | 66° |
| 2026-05-07 09:25 | 36.16222 | 139.30288 | 36910 ft | 529 kts | 60° |
| 2026-05-07 09:25 | 36.20332 | 139.37861 | 36915 ft | 529 kts | 54° |
| 2026-05-07 09:26 | 36.24665 | 139.45252 | 36911 ft | 530 kts | 54° |
| 2026-05-07 09:26 | 36.29025 | 139.52623 | 36914 ft | 530 kts | 54° |
| 2026-05-07 09:27 | 36.33370 | 139.60018 | 36908 ft | 530 kts | 54° |
| 2026-05-07 09:28 | 36.39832 | 139.71095 | 36903 ft | 531 kts | 54° |
| 2026-05-07 09:28 | 36.44178 | 139.78529 | 36904 ft | 531 kts | 54° |
| 2026-05-07 09:29 | 36.48540 | 139.85955 | 36905 ft | 531 kts | 54° |
| 2026-05-07 09:29 | 36.52745 | 139.93503 | 36888 ft | 531 kts | 57° |
| 2026-05-07 09:30 | 36.56730 | 140.01179 | 36880 ft | 532 kts | 57° |
| 2026-05-07 09:30 | 36.60750 | 140.08929 | 36896 ft | 532 kts | 57° |
| 2026-05-07 09:31 | 36.64798 | 140.16640 | 36877 ft | 532 kts | 57° |
| 2026-05-07 09:31 | 36.68870 | 140.24369 | 36877 ft | 533 kts | 57° |
| 2026-05-07 09:32 | 36.72935 | 140.32106 | 36884 ft | 533 kts | 57° |
| 2026-05-07 09:32 | 36.76328 | 140.40261 | 36890 ft | 533 kts | 66° |
| 2026-05-07 09:33 | 36.79373 | 140.48710 | 36892 ft | 533 kts | 67° |
| 2026-05-07 09:33 | 36.82341 | 140.57159 | 36901 ft | 534 kts | 67° |
| 2026-05-07 09:34 | 36.85323 | 140.65651 | 36903 ft | 535 kts | 67° |
| 2026-05-07 09:34 | 36.88319 | 140.74168 | 36909 ft | 535 kts | 67° |
| 2026-05-07 09:35 | 36.91318 | 140.82702 | 36911 ft | 535 kts | 67° |